Aeroporto :
LOGIN :

Iscrizione | Disclaimer

   EN    FR    IT 

 










Sommario :    VFR   VFR Marginale   IFR   IFR Intensivo   IFR Molto Intensivo
Visibilità : 
Base nubi : 
>= 8 km
>= 3000ft
5 / 8 km
1000 / 3000 ft
1500m / 5 km
500 / 1000 ft
800 / 1500m
200 / 500 ft
< 800m
< 200 ft
Simboli :   Temporali  Nebbia  Neve Forte  Precipitazioni Forti  Vento > 20 kt
SIGMETs :   Varie  Temporali  Ghiacco  Turbolenza  Onda orograficha  Ceneri Vulcaniche






- Altitudine del aeroporto : 436 ft
- Codice IATA : ANG


LFBU - Angoulême Brie Champniers

ULTIMO METAR :
  • 190030Z AUTO 00000KT CAVOK 21/16 Q1018

METARs OBSOLETI :
  • 190000Z AUTO 00000KT CAVOK 21/16 Q1018
  • 182330Z AUTO 00000KT CAVOK 21/16 Q1018
  • 182300Z AUTO 35005KT CAVOK 22/16 Q1018
  • 182230Z AUTO 33005KT CAVOK 23/16 Q1018
  • 182200Z AUTO 33004KT CAVOK 24/16 Q1018
  • 182130Z AUTO 29007KT CAVOK 25/16 Q1018
  • 182100Z AUTO 26005KT CAVOK 26/16 Q1018 NOSIG
  • 182030Z AUTO VRB02KT CAVOK 26/16 Q1018 NOSIG
  • 182000Z AUTO VRB02KT CAVOK 27/16 Q1018 NOSIG
  • 181930Z AUTO 03002KT CAVOK 30/16 Q1018 NOSIG

TAF TAF LFBU
Valido dal 18 a 18 ore il 19 a 18 ore UTC


181700Z 1818/1918 34005KT CAVOK
BECMG 1906/1908 26005KT



MetMap, La meteo Aeronautica in un colpo d'occhio ! - Copyright ORBIFLY Dicembre 2007 - Disclaimer

ORBIFLY MET'MAP TEAM :

Programmazione e sviluppo : Alexandra Zaïnal
Concezione : Baudouin d'Aumeries
Supporto tecnico e logistico : Manuel Goepfert
Aiuto : Marc-Olivier Méhu
Aiuto per la traduzione : Arnaldo La Scala




FONTI E CREDITI :

   NOAA